sensor_id;sensor_type;location;lat;lon;timestamp;pressure;altitude;pressure_sealevel;temperature;humidity
60307;BME280;46155;52.364;6.580;2023-11-21T04:02:24;100897.63;;;7.67;100.00
60307;BME280;46155;52.364;6.580;2023-11-21T04:04:51;100900.59;;;7.72;100.00
60307;BME280;46155;52.364;6.580;2023-11-21T04:07:16;100902.19;;;7.70;100.00
60307;BME280;46155;52.364;6.580;2023-11-21T04:09:43;100910.59;;;7.66;100.00
60307;BME280;46155;52.364;6.580;2023-11-21T04:12:08;100894.69;;;7.63;100.00
60307;BME280;46155;52.364;6.580;2023-11-21T04:14:36;100910.13;;;7.71;100.00
60307;BME280;46155;52.364;6.580;2023-11-21T04:17:01;100911.03;;;7.72;100.00
60307;BME280;46155;52.364;6.580;2023-11-21T04:19:29;100911.03;;;7.72;100.00
60307;BME280;46155;52.364;6.580;2023-11-21T04:21:54;100915.69;;;7.76;100.00
60307;BME280;46155;52.364;6.580;2023-11-21T04:24:19;100927.97;;;7.77;100.00
60307;BME280;46155;52.364;6.580;2023-11-21T04:26:45;100920.13;;;7.77;100.00
60307;BME280;46155;52.364;6.580;2023-11-21T04:29:11;100923.53;;;7.76;100.00
60307;BME280;46155;52.364;6.580;2023-11-21T04:31:36;100932.75;;;7.83;100.00
60307;BME280;46155;52.364;6.580;2023-11-21T04:34:02;100936.16;;;7.82;100.00
60307;BME280;46155;52.364;6.580;2023-11-21T04:36:29;100946.94;;;7.86;100.00
60307;BME280;46155;52.364;6.580;2023-11-21T04:38:56;100944.22;;;7.85;100.00
60307;BME280;46155;52.364;6.580;2023-11-21T04:41:22;100945.59;;;7.80;100.00
60307;BME280;46155;52.364;6.580;2023-11-21T04:43:47;100947.38;;;7.81;100.00
60307;BME280;46155;52.364;6.580;2023-11-21T04:46:13;100947.59;;;7.84;100.00
60307;BME280;46155;52.364;6.580;2023-11-21T04:48:38;100949.31;;;7.83;100.00
60307;BME280;46155;52.364;6.580;2023-11-21T04:51:03;100947.97;;;7.88;100.00
60307;BME280;46155;52.364;6.580;2023-11-21T04:53:29;100951.47;;;8.13;100.00
60307;BME280;46155;52.364;6.580;2023-11-21T04:55:55;100955.41;;;8.19;100.00
60307;BME280;46155;52.364;6.580;2023-11-21T04:58:20;100959.88;;;8.20;100.00
60307;BME280;46155;52.364;6.580;2023-11-21T05:00:45;100971.00;;;8.18;100.00
60307;BME280;46155;52.364;6.580;2023-11-21T05:03:11;100968.06;;;8.13;100.00
60307;BME280;46155;52.364;6.580;2023-11-21T05:05:37;100975.47;;;8.07;100.00
60307;BME280;46155;52.364;6.580;2023-11-21T05:08:03;100981.47;;;8.06;100.00
60307;BME280;46155;52.364;6.580;2023-11-21T05:10:28;100990.13;;;8.05;100.00
60307;BME280;46155;52.364;6.580;2023-11-21T05:12:54;100989.44;;;8.07;100.00
60307;BME280;46155;52.364;6.580;2023-11-21T05:15:20;100996.59;;;8.10;100.00
60307;BME280;46155;52.364;6.580;2023-11-21T05:17:46;101001.06;;;8.11;100.00
60307;BME280;46155;52.364;6.580;2023-11-21T05:20:14;101006.28;;;8.11;100.00
60307;BME280;46155;52.364;6.580;2023-11-21T05:22:43;101008.91;;;8.11;100.00
60307;BME280;46155;52.364;6.580;2023-11-21T05:25:09;101005.34;;;8.10;100.00
60307;BME280;46155;52.364;6.580;2023-11-21T05:27:35;101016.97;;;8.14;100.00
60307;BME280;46155;52.364;6.580;2023-11-21T05:30:02;101011.50;;;8.11;100.00
60307;BME280;46155;52.364;6.580;2023-11-21T05:32:30;101009.69;;;8.10;100.00
60307;BME280;46155;52.364;6.580;2023-11-21T05:34:55;101022.19;;;8.14;100.00
60307;BME280;46155;52.364;6.580;2023-11-21T05:37:21;101022.88;;;8.12;100.00
60307;BME280;46155;52.364;6.580;2023-11-21T05:39:46;101030.72;;;8.12;100.00
60307;BME280;46155;52.364;6.580;2023-11-21T05:42:12;101027.09;;;8.09;100.00
60307;BME280;46155;52.364;6.580;2023-11-21T05:44:41;101034.94;;;8.09;100.00
60307;BME280;46155;52.364;6.580;2023-11-21T05:47:07;101031.28;;;8.07;100.00
60307;BME280;46155;52.364;6.580;2023-11-21T05:49:32;101033.78;;;8.06;100.00
60307;BME280;46155;52.364;6.580;2023-11-21T05:51:58;101042.41;;;8.05;100.00
60307;BME280;46155;52.364;6.580;2023-11-21T05:54:24;101047.63;;;8.05;100.00
60307;BME280;46155;52.364;6.580;2023-11-21T05:56:50;101044.91;;;8.03;100.00
60307;BME280;46155;52.364;6.580;2023-11-21T05:59:15;101043.69;;;7.98;100.00
60307;BME280;46155;52.364;6.580;2023-11-21T06:01:40;101056.97;;;8.01;100.00
60307;BME280;46155;52.364;6.580;2023-11-21T06:04:05;101047.31;;;8.00;100.00
60307;BME280;46155;52.364;6.580;2023-11-21T06:06:33;101046.97;;;7.96;100.00
60307;BME280;46155;52.364;6.580;2023-11-21T06:08:58;101054.13;;;7.98;100.00
60307;BME280;46155;52.364;6.580;2023-11-21T06:11:24;101060.25;;;7.99;100.00
60307;BME280;46155;52.364;6.580;2023-11-21T06:13:49;101063.88;;;8.01;100.00
60307;BME280;46155;52.364;6.580;2023-11-21T06:16:15;101067.22;;;7.98;100.00
60307;BME280;46155;52.364;6.580;2023-11-21T06:18:42;101075.84;;;7.97;100.00
60307;BME280;46155;52.364;6.580;2023-11-21T06:21:11;101077.41;;;7.95;100.00
60307;BME280;46155;52.364;6.580;2023-11-21T06:23:36;101080.13;;;7.97;100.00
60307;BME280;46155;52.364;6.580;2023-11-21T06:26:02;101064.22;;;7.93;100.00
60307;BME280;46155;52.364;6.580;2023-11-21T06:28:28;101073.34;;;7.99;100.00
60307;BME280;46155;52.364;6.580;2023-11-21T06:30:53;101076.75;;;7.98;100.00
60307;BME280;46155;52.364;6.580;2023-11-21T06:33:19;101088.47;;;8.03;100.00
60307;BME280;46155;52.364;6.580;2023-11-21T06:35:45;101077.66;;;7.98;100.00
60307;BME280;46155;52.364;6.580;2023-11-21T06:38:10;101095.38;;;8.02;100.00
60307;BME280;46155;52.364;6.580;2023-11-21T06:40:35;101099.72;;;8.02;100.00
60307;BME280;46155;52.364;6.580;2023-11-21T06:43:01;101110.94;;;8.01;100.00
60307;BME280;46155;52.364;6.580;2023-11-21T06:45:27;101110.63;;;8.08;100.00
60307;BME280;46155;52.364;6.580;2023-11-21T06:47:52;101106.88;;;8.04;100.00
60307;BME280;46155;52.364;6.580;2023-11-21T06:50:18;101115.41;;;8.02;100.00
60307;BME280;46155;52.364;6.580;2023-11-21T06:52:43;101116.19;;;8.01;100.00
60307;BME280;46155;52.364;6.580;2023-11-21T06:55:09;101118.78;;;8.01;100.00
60307;BME280;46155;52.364;6.580;2023-11-21T06:57:35;101125.84;;;8.02;100.00
60307;BME280;46155;52.364;6.580;2023-11-21T07:00:00;101132.91;;;8.03;100.00
60307;BME280;46155;52.364;6.580;2023-11-21T07:02:25;101139.81;;;8.02;100.00
60307;BME280;46155;52.364;6.580;2023-11-21T07:04:51;101132.44;;;7.97;100.00
60307;BME280;46155;52.364;6.580;2023-11-21T07:07:16;101141.53;;;8.02;100.00
60307;BME280;46155;52.364;6.580;2023-11-21T07:09:41;101145.88;;;8.01;100.00
60307;BME280;46155;52.364;6.580;2023-11-21T07:12:07;101149.38;;;8.02;100.00
60307;BME280;46155;52.364;6.580;2023-11-21T07:14:35;101153.84;;;8.03;100.00
60307;BME280;46155;52.364;6.580;2023-11-21T07:17:02;101163.19;;;8.11;100.00
60307;BME280;46155;52.364;6.580;2023-11-21T07:19:27;101166.91;;;8.15;100.00
60307;BME280;46155;52.364;6.580;2023-11-21T07:21:52;101170.59;;;8.17;100.00
60307;BME280;46155;52.364;6.580;2023-11-21T07:24:18;101179.09;;;8.14;100.00
60307;BME280;46155;52.364;6.580;2023-11-21T07:26:43;101182.94;;;8.07;100.00
60307;BME280;46155;52.364;6.580;2023-11-21T07:29:09;101185.44;;;8.06;100.00
60307;BME280;46155;52.364;6.580;2023-11-21T07:31:36;101197.97;;;8.10;100.00
60307;BME280;46155;52.364;6.580;2023-11-21T07:34:02;101189.06;;;8.08;100.00
60307;BME280;46155;52.364;6.580;2023-11-21T07:36:27;101196.34;;;8.12;100.00
60307;BME280;46155;52.364;6.580;2023-11-21T07:38:53;101201.84;;;8.15;100.00
60307;BME280;46155;52.364;6.580;2023-11-21T07:41:19;101214.13;;;8.16;100.00
60307;BME280;46155;52.364;6.580;2023-11-21T07:43:45;101213.09;;;8.14;100.00
60307;BME280;46155;52.364;6.580;2023-11-21T07:46:11;101216.38;;;8.12;100.00
60307;BME280;46155;52.364;6.580;2023-11-21T07:48:38;101227.41;;;8.07;100.00
60307;BME280;46155;52.364;6.580;2023-11-21T07:51:03;101236.56;;;8.02;100.00
60307;BME280;46155;52.364;6.580;2023-11-21T07:53:29;101237.00;;;7.97;100.00
60307;BME280;46155;52.364;6.580;2023-11-21T07:55:55;101229.63;;;7.91;100.00
60307;BME280;46155;52.364;6.580;2023-11-21T07:58:21;101229.25;;;7.86;100.00
60307;BME280;46155;52.364;6.580;2023-11-21T08:00:46;101229.91;;;7.84;100.00
60307;BME280;46155;52.364;6.580;2023-11-21T08:03:13;101243.25;;;7.87;100.00
60307;BME280;46155;52.364;6.580;2023-11-21T08:05:38;101247.44;;;7.85;100.00
60307;BME280;46155;52.364;6.580;2023-11-21T08:08:04;101251.63;;;7.83;100.00
60307;BME280;46155;52.364;6.580;2023-11-21T08:10:29;101256.25;;;7.75;100.00
60307;BME280;46155;52.364;6.580;2023-11-21T08:12:55;101263.06;;;7.73;100.00
60307;BME280;46155;52.364;6.580;2023-11-21T08:15:20;101268.28;;;7.73;100.00
60307;BME280;46155;52.364;6.580;2023-11-21T08:17:46;101267.34;;;7.72;100.00
60307;BME280;46155;52.364;6.580;2023-11-21T08:20:12;101271.44;;;7.69;100.00
60307;BME280;46155;52.364;6.580;2023-11-21T08:22:37;101281.13;;;7.70;100.00
60307;BME280;46155;52.364;6.580;2023-11-21T08:25:06;101286.47;;;7.71;100.00
60307;BME280;46155;52.364;6.580;2023-11-21T08:27:33;101279.03;;;7.66;100.00
60307;BME280;46155;52.364;6.580;2023-11-21T08:29:59;101285.06;;;7.65;100.00
60307;BME280;46155;52.364;6.580;2023-11-21T08:32:25;101288.19;;;7.61;100.00
60307;BME280;46155;52.364;6.580;2023-11-21T08:34:50;101292.66;;;7.62;100.00
60307;BME280;46155;52.364;6.580;2023-11-21T08:37:16;101292.72;;;7.51;100.00
60307;BME280;46155;52.364;6.580;2023-11-21T08:39:44;101299.84;;;7.54;100.00
60307;BME280;46155;52.364;6.580;2023-11-21T08:42:10;101298.59;;;7.49;100.00
60307;BME280;46155;52.364;6.580;2023-11-21T08:44:35;101303.53;;;7.56;100.00
60307;BME280;46155;52.364;6.580;2023-11-21T08:47:01;101315.50;;;7.64;100.00
60307;BME280;46155;52.364;6.580;2023-11-21T08:49:26;101305.97;;;7.65;100.00
60307;BME280;46155;52.364;6.580;2023-11-21T08:51:53;101293.66;;;7.64;100.00
60307;BME280;46155;52.364;6.580;2023-11-21T08:54:20;101307.38;;;7.71;100.00
60307;BME280;46155;52.364;6.580;2023-11-21T08:56:46;101307.25;;;7.70;100.00
60307;BME280;46155;52.364;6.580;2023-11-21T08:59:11;101304.63;;;7.70;100.00
60307;BME280;46155;52.364;6.580;2023-11-21T09:01:40;101327.09;;;7.68;100.00
60307;BME280;46155;52.364;6.580;2023-11-21T09:04:06;101334.41;;;7.72;100.00
60307;BME280;46155;52.364;6.580;2023-11-21T09:06:31;101334.41;;;7.72;100.00
60307;BME280;46155;52.364;6.580;2023-11-21T09:08:57;101343.53;;;7.77;100.00
60307;BME280;46155;52.364;6.580;2023-11-21T09:11:22;101340.94;;;7.77;100.00
60307;BME280;46155;52.364;6.580;2023-11-21T09:13:50;101350.56;;;7.78;100.00
60307;BME280;46155;52.364;6.580;2023-11-21T09:16:16;101350.97;;;7.83;100.00
60307;BME280;46155;52.364;6.580;2023-11-21T09:18:42;101355.13;;;7.81;100.00
60307;BME280;46155;52.364;6.580;2023-11-21T09:21:07;101357.56;;;7.89;100.00
60307;BME280;46155;52.364;6.580;2023-11-21T09:23:33;101358.88;;;7.95;100.00
60307;BME280;46155;52.364;6.580;2023-11-21T09:25:59;101358.63;;;7.91;100.00
60307;BME280;46155;52.364;6.580;2023-11-21T09:28:26;101369.81;;;8.01;100.00
60307;BME280;46155;52.364;6.580;2023-11-21T09:30:52;101371.88;;;8.05;100.00
60307;BME280;46155;52.364;6.580;2023-11-21T09:33:18;101369.78;;;8.11;100.00
60307;BME280;46155;52.364;6.580;2023-11-21T09:35:43;101377.22;;;8.06;100.00
60307;BME280;46155;52.364;6.580;2023-11-21T09:38:09;101382.84;;;8.11;100.00
60307;BME280;46155;52.364;6.580;2023-11-21T09:40:37;101379.38;;;8.22;100.00
60307;BME280;46155;52.364;6.580;2023-11-21T09:43:06;101396.66;;;8.20;100.00
60307;BME280;46155;52.364;6.580;2023-11-21T09:45:35;101398.25;;;8.18;100.00
60307;BME280;46155;52.364;6.580;2023-11-21T09:48:01;101391.72;;;8.13;100.00
60307;BME280;46155;52.364;6.580;2023-11-21T09:50:27;101401.16;;;8.11;100.00
60307;BME280;46155;52.364;6.580;2023-11-21T09:53:37;101410.81;;;8.12;100.00
60307;BME280;46155;52.364;6.580;2023-11-21T09:55:46;101416.72;;;8.09;100.00
60307;BME280;46155;52.364;6.580;2023-11-21T09:58:13;101426.00;;;8.06;100.00
60307;BME280;46155;52.364;6.580;2023-11-21T10:00:43;101423.53;;;8.07;100.00
60307;BME280;46155;52.364;6.580;2023-11-21T10:03:09;101433.03;;;8.17;100.00
60307;BME280;46155;52.364;6.580;2023-11-21T10:05:35;101432.47;;;8.21;100.00
60307;BME280;46155;52.364;6.580;2023-11-21T10:08:01;101423.34;;;8.16;100.00
60307;BME280;46155;52.364;6.580;2023-11-21T10:10:29;101427.00;;;8.18;100.00
60307;BME280;46155;52.364;6.580;2023-11-21T10:12:57;101434.56;;;8.25;100.00
60307;BME280;46155;52.364;6.580;2023-11-21T10:15:28;101447.09;;;8.30;100.00
60307;BME280;46155;52.364;6.580;2023-11-21T10:17:55;101442.66;;;8.28;100.00
60307;BME280;46155;52.364;6.580;2023-11-21T10:20:21;101449.16;;;8.34;100.00
60307;BME280;46155;52.364;6.580;2023-11-21T10:22:49;101445.84;;;8.36;100.00
60307;BME280;46155;52.364;6.580;2023-11-21T10:25:15;101452.81;;;8.36;100.00
60307;BME280;46155;52.364;6.580;2023-11-21T10:27:41;101441.00;;;8.41;100.00
60307;BME280;46155;52.364;6.580;2023-11-21T10:30:07;101448.75;;;8.39;100.00
60307;BME280;46155;52.364;6.580;2023-11-21T10:32:38;101446.25;;;8.41;100.00
60307;BME280;46155;52.364;6.580;2023-11-21T10:35:08;101453.16;;;8.40;100.00
60307;BME280;46155;52.364;6.580;2023-11-21T10:37:40;101455.78;;;8.40;100.00
60307;BME280;46155;52.364;6.580;2023-11-21T10:40:07;101466.78;;;8.47;100.00
60307;BME280;46155;52.364;6.580;2023-11-21T10:42:33;101472.25;;;8.50;100.00
60307;BME280;46155;52.364;6.580;2023-11-21T10:44:58;101470.66;;;8.52;100.00
60307;BME280;46155;52.364;6.580;2023-11-21T10:47:25;101478.94;;;8.46;100.00
60307;BME280;46155;52.364;6.580;2023-11-21T10:49:51;101478.41;;;8.50;100.00
60307;BME280;46155;52.364;6.580;2023-11-21T10:52:21;101476.84;;;8.52;100.00
60307;BME280;46155;52.364;6.580;2023-11-21T10:54:46;101485.00;;;8.45;100.00
60307;BME280;46155;52.364;6.580;2023-11-21T10:57:16;101492.03;;;8.46;100.00
60307;BME280;46155;52.364;6.580;2023-11-21T10:59:47;101493.19;;;8.50;100.00
60307;BME280;46155;52.364;6.580;2023-11-21T11:02:23;101492.31;;;8.49;100.00
60307;BME280;46155;52.364;6.580;2023-11-21T11:04:50;101492.03;;;8.46;100.00
60307;BME280;46155;52.364;6.580;2023-11-21T11:07:17;101493.88;;;8.47;100.00
60307;BME280;46155;52.364;6.580;2023-11-21T11:09:44;101497.25;;;8.46;100.00
60307;BME280;46155;52.364;6.580;2023-11-21T11:12:11;101499.09;;;8.47;100.00
60307;BME280;46155;52.364;6.580;2023-11-21T11:14:40;101505.94;;;8.45;100.00
60307;BME280;46155;52.364;6.580;2023-11-21T11:17:07;101498.56;;;8.51;100.00
60307;BME280;46155;52.364;6.580;2023-11-21T11:19:34;101514.69;;;8.46;100.00
60307;BME280;46155;52.364;6.580;2023-11-21T11:36:00;101526.03;;;8.03;100.00
60307;BME280;46155;52.364;6.580;2023-11-21T11:38:31;101530.38;;;8.03;100.00
60307;BME280;46155;52.364;6.580;2023-11-21T11:41:02;101540.81;;;8.03;100.00
60307;BME280;46155;52.364;6.580;2023-11-21T11:43:31;101544.13;;;7.90;100.00
60307;BME280;46155;52.364;6.580;2023-11-21T11:46:10;101536.97;;;7.77;100.00
60307;BME280;46155;52.364;6.580;2023-11-21T11:48:39;101543.75;;;7.75;100.00
60307;BME280;46155;52.364;6.580;2023-11-21T11:51:12;101545.34;;;7.73;100.00
60307;BME280;46155;52.364;6.580;2023-11-21T11:53:47;101557.88;;;7.67;100.00
60307;BME280;46155;52.364;6.580;2023-11-21T11:56:19;101555.53;;;7.49;100.00
60307;BME280;46155;52.364;6.580;2023-11-21T11:58:45;101564.44;;;7.51;100.00
60307;BME280;46155;52.364;6.580;2023-11-21T12:01:11;101556.44;;;7.50;100.00
60307;BME280;46155;52.364;6.580;2023-11-21T12:03:37;101564.44;;;7.51;100.00
60307;BME280;46155;52.364;6.580;2023-11-21T12:06:02;101566.25;;;7.52;100.00
60307;BME280;46155;52.364;6.580;2023-11-21T12:08:28;101560.25;;;7.53;100.00
60307;BME280;46155;52.364;6.580;2023-11-21T12:10:56;101571.47;;;7.52;100.00
60307;BME280;46155;52.364;6.580;2023-11-21T12:13:22;101566.25;;;7.52;100.00
60307;BME280;46155;52.364;6.580;2023-11-21T12:15:48;101576.94;;;7.55;100.00
60307;BME280;46155;52.364;6.580;2023-11-21T12:18:14;101579.56;;;7.55;100.00
60307;BME280;46155;52.364;6.580;2023-11-21T12:20:39;101587.69;;;7.58;100.00
60307;BME280;46155;52.364;6.580;2023-11-21T12:23:06;101584.81;;;7.66;100.00
60307;BME280;46155;52.364;6.580;2023-11-21T12:25:34;101580.09;;;7.72;100.00
60307;BME280;46155;52.364;6.580;2023-11-21T12:28:02;101587.16;;;7.73;100.00
60307;BME280;46155;52.364;6.580;2023-11-21T12:30:32;101585.03;;;7.79;100.00
60307;BME280;46155;52.364;6.580;2023-11-21T12:33:01;101595.88;;;7.84;100.00
60307;BME280;46155;52.364;6.580;2023-11-21T12:35:28;101601.28;;;7.85;100.00
60307;BME280;46155;52.364;6.580;2023-11-21T12:37:55;101597.97;;;7.88;100.00
60307;BME280;46155;52.364;6.580;2023-11-21T12:40:22;101605.84;;;7.78;100.00
60307;BME280;46155;52.364;6.580;2023-11-21T12:42:51;101614.56;;;7.78;100.00
60307;BME280;46155;52.364;6.580;2023-11-21T12:47:43;101617.59;;;7.83;100.00
60307;BME280;46155;52.364;6.580;2023-11-21T12:50:10;101624.63;;;7.84;100.00
60307;BME280;46155;52.364;6.580;2023-11-21T12:52:45;101629.75;;;7.82;100.00
60307;BME280;46155;52.364;6.580;2023-11-21T12:55:18;101629.47;;;7.79;100.00
60307;BME280;46155;52.364;6.580;2023-11-21T12:57:44;101633.00;;;7.69;100.00
60307;BME280;46155;52.364;6.580;2023-11-21T13:00:12;101642.81;;;7.72;100.00
60307;BME280;46155;52.364;6.580;2023-11-21T13:02:50;101641.50;;;7.67;100.00
60307;BME280;46155;52.364;6.580;2023-11-21T13:05:26;101644.09;;;7.67;100.00
60307;BME280;46155;52.364;6.580;2023-11-21T13:07:52;101647.28;;;7.63;100.00
60307;BME280;46155;52.364;6.580;2023-11-21T13:10:29;101649.47;;;7.58;100.00
60307;BME280;46155;52.364;6.580;2023-11-21T13:12:59;101653.28;;;7.62;100.00
60307;BME280;46155;52.364;6.580;2023-11-21T13:15:27;101656.66;;;7.61;100.00
60307;BME280;46155;52.364;6.580;2023-11-21T13:17:53;101649.34;;;7.56;100.00
60307;BME280;46155;52.364;6.580;2023-11-21T13:20:20;101655.13;;;7.63;100.00
60307;BME280;46155;52.364;6.580;2023-11-21T13:22:54;101657.31;;;7.58;100.00
60307;BME280;46155;52.364;6.580;2023-11-21T13:25:23;101658.50;;;7.51;100.00
60307;BME280;46155;52.364;6.580;2023-11-21T13:27:49;101657.16;;;7.46;100.00
60307;BME280;46155;52.364;6.580;2023-11-21T13:30:16;101655.34;;;7.55;100.00
60307;BME280;46155;52.364;6.580;2023-11-21T13:32:45;101672.19;;;7.49;100.00
60307;BME280;46155;52.364;6.580;2023-11-21T13:35:12;101665.13;;;7.48;100.00
60307;BME280;46155;52.364;6.580;2023-11-21T13:37:49;101671.25;;;7.38;100.00
60307;BME280;46155;52.364;6.580;2023-11-21T13:40:19;101687.19;;;7.41;100.00
60307;BME280;46155;52.364;6.580;2023-11-21T13:42:48;101685.66;;;7.43;100.00
60307;BME280;46155;52.364;6.580;2023-11-21T13:45:13;101688.50;;;7.36;100.00
60307;BME280;46155;52.364;6.580;2023-11-21T13:47:39;101695.03;;;7.41;100.00
60307;BME280;46155;52.364;6.580;2023-11-21T13:50:05;101691.25;;;7.37;100.00
60307;BME280;46155;52.364;6.580;2023-11-21T13:52:42;101708.97;;;7.31;100.00
60307;BME280;46155;52.364;6.580;2023-11-21T13:55:07;101707.03;;;7.29;100.00
60307;BME280;46155;52.364;6.580;2023-11-21T13:57:39;101721.13;;;7.31;100.00
60307;BME280;46155;52.364;6.580;2023-11-21T14:00:05;101722.34;;;7.34;100.00
60307;BME280;46155;52.364;6.580;2023-11-21T14:02:36;101728.47;;;7.35;100.00
60307;BME280;46155;52.364;6.580;2023-11-21T14:05:07;101735.22;;;7.33;100.00
60307;BME280;46155;52.364;6.580;2023-11-21T14:07:34;101749.09;;;7.32;100.00
60307;BME280;46155;52.364;6.580;2023-11-21T14:10:03;101736.44;;;7.36;100.00
60307;BME280;46155;52.364;6.580;2023-11-21T14:12:31;101741.13;;;7.30;100.00
60307;BME280;46155;52.364;6.580;2023-11-21T14:15:01;101748.03;;;7.30;100.00
60307;BME280;46155;52.364;6.580;2023-11-21T14:17:30;101752.84;;;7.25;100.00
60307;BME280;46155;52.364;6.580;2023-11-21T14:19:55;101761.09;;;7.30;100.00
60307;BME280;46155;52.364;6.580;2023-11-21T14:22:21;101768.91;;;7.30;100.00
60307;BME280;46155;52.364;6.580;2023-11-21T14:24:46;101760.31;;;7.31;100.00
60307;BME280;46155;52.364;6.580;2023-11-21T14:27:13;101763.94;;;7.22;100.00
60307;BME280;46155;52.364;6.580;2023-11-21T14:29:39;101771.75;;;7.22;100.00
60307;BME280;46155;52.364;6.580;2023-11-21T14:32:08;101771.25;;;7.27;100.00
60307;BME280;46155;52.364;6.580;2023-11-21T14:34:35;101777.94;;;7.23;100.00
60307;BME280;46155;52.364;6.580;2023-11-21T14:37:01;101783.91;;;7.22;100.00
60307;BME280;46155;52.364;6.580;2023-11-21T14:39:28;101784.56;;;7.19;100.00
60307;BME280;46155;52.364;6.580;2023-11-21T14:41:55;101788.75;;;7.17;100.00
60307;BME280;46155;52.364;6.580;2023-11-21T14:44:21;101790.19;;;7.24;100.00
60307;BME280;46155;52.364;6.580;2023-11-21T14:46:51;101798.97;;;7.24;100.00
60307;BME280;46155;52.364;6.580;2023-11-21T14:49:17;101805.72;;;7.22;100.00
60307;BME280;46155;52.364;6.580;2023-11-21T14:51:51;101802.84;;;7.19;100.00
60307;BME280;46155;52.364;6.580;2023-11-21T14:54:31;101811.16;;;7.15;100.00
60307;BME280;46155;52.364;6.580;2023-11-21T14:57:07;101807.88;;;7.07;100.00
60307;BME280;46155;52.364;6.580;2023-11-21T14:59:43;101820.13;;;7.09;100.00
60307;BME280;46155;52.364;6.580;2023-11-21T15:02:08;101823.94;;;7.12;100.00
60307;BME280;46155;52.364;6.580;2023-11-21T15:04:42;101824.78;;;7.21;100.00
60307;BME280;46155;52.364;6.580;2023-11-21T15:07:08;101847.00;;;7.27;100.00
60307;BME280;46155;52.364;6.580;2023-11-21T15:09:33;101847.00;;;7.27;100.00
60307;BME280;46155;52.364;6.580;2023-11-21T15:12:00;101853.38;;;7.20;100.00
60307;BME280;46155;52.364;6.580;2023-11-21T15:14:48;101851.91;;;7.13;100.00
60307;BME280;46155;52.364;6.580;2023-11-21T15:17:17;101856.81;;;7.10;100.00
60307;BME280;46155;52.364;6.580;2023-11-21T15:19:53;101861.50;;;7.04;100.00
60307;BME280;46155;52.364;6.580;2023-11-21T15:22:19;101872.72;;;7.03;100.00
60307;BME280;46155;52.364;6.580;2023-11-21T15:24:45;101875.31;;;7.03;100.00
60307;BME280;46155;52.364;6.580;2023-11-21T15:27:13;101888.09;;;7.00;100.00
60307;BME280;46155;52.364;6.580;2023-11-21T15:29:39;101888.03;;;6.89;100.00
60307;BME280;46155;52.364;6.580;2023-11-21T15:32:06;101886.69;;;6.84;100.00
60307;BME280;46155;52.364;6.580;2023-11-21T15:34:33;101890.09;;;6.83;100.00
60307;BME280;46155;52.364;6.580;2023-11-21T15:36:59;101892.09;;;6.77;100.00
60307;BME280;46155;52.364;6.580;2023-11-21T15:39:24;101910.38;;;6.77;100.00
60307;BME280;46155;52.364;6.580;2023-11-21T15:41:57;101919.47;;;6.72;100.00
60307;BME280;46155;52.364;6.580;2023-11-21T15:44:23;101905.56;;;6.82;100.00
60307;BME280;46155;52.364;6.580;2023-11-21T15:46:51;101908.16;;;7.10;100.00
60307;BME280;46155;52.364;6.580;2023-11-21T15:49:17;101910.97;;;7.02;100.00
60307;BME280;46155;52.364;6.580;2023-11-21T15:51:45;101914.13;;;6.89;100.00
60307;BME280;46155;52.364;6.580;2023-11-21T15:54:12;101920.66;;;6.76;100.00
60307;BME280;46155;52.364;6.580;2023-11-21T15:56:38;101927.72;;;6.77;100.00
60307;BME280;46155;52.364;6.580;2023-11-21T15:59:04;101931.44;;;6.70;100.00
60307;BME280;46155;52.364;6.580;2023-11-21T16:01:32;101935.47;;;6.66;100.00
60307;BME280;46155;52.364;6.580;2023-11-21T16:03:59;101923.06;;;6.64;100.00
60307;BME280;46155;52.364;6.580;2023-11-21T16:06:26;101933.00;;;6.68;100.00
60307;BME280;46155;52.364;6.580;2023-11-21T16:08:52;101943.31;;;6.66;100.00
60307;BME280;46155;52.364;6.580;2023-11-21T16:11:17;101951.09;;;6.75;100.00
60307;BME280;46155;52.364;6.580;2023-11-21T16:13:43;101950.00;;;6.73;100.00
60307;BME280;46155;52.364;6.580;2023-11-21T16:16:09;101960.00;;;6.68;100.00
60307;BME280;46155;52.364;6.580;2023-11-21T16:18:34;101963.25;;;6.66;100.00
60307;BME280;46155;52.364;6.580;2023-11-21T16:20:59;101970.78;;;6.63;100.00
60307;BME280;46155;52.364;6.580;2023-11-21T16:23:24;101967.97;;;6.70;100.00
60307;BME280;46155;52.364;6.580;2023-11-21T16:25:50;101975.25;;;6.64;100.00
60307;BME280;46155;52.364;6.580;2023-11-21T16:28:22;101977.06;;;6.65;100.00
60307;BME280;46155;52.364;6.580;2023-11-21T16:30:49;101986.81;;;6.76;100.00
60307;BME280;46155;52.364;6.580;2023-11-21T16:33:15;101986.19;;;6.79;100.00
60307;BME280;46155;52.364;6.580;2023-11-21T16:35:40;101994.50;;;6.75;100.00
60307;BME280;46155;52.364;6.580;2023-11-21T16:38:06;101993.13;;;6.78;100.00
60307;BME280;46155;52.364;6.580;2023-11-21T16:40:32;102000.66;;;6.75;100.00
60307;BME280;46155;52.364;6.580;2023-11-21T16:42:57;102014.47;;;6.74;100.00
60307;BME280;46155;52.364;6.580;2023-11-21T16:45:22;102014.34;;;6.72;100.00
60307;BME280;46155;52.364;6.580;2023-11-21T16:47:48;102017.72;;;6.71;100.00
60307;BME280;46155;52.364;6.580;2023-11-21T16:50:14;102009.59;;;6.68;100.00
60307;BME280;46155;52.364;6.580;2023-11-21T16:52:40;102025.13;;;6.67;100.00
60307;BME280;46155;52.364;6.580;2023-11-21T16:55:06;102030.63;;;6.70;100.00
60307;BME280;46155;52.364;6.580;2023-11-21T16:57:35;102037.25;;;6.66;100.00
60307;BME280;46155;52.364;6.580;2023-11-21T17:00:02;102034.00;;;6.69;100.00
60307;BME280;46155;52.364;6.580;2023-11-21T17:02:31;102028.22;;;6.54;100.00
60307;BME280;46155;52.364;6.580;2023-11-21T17:04:56;102043.28;;;6.57;100.00
60307;BME280;46155;52.364;6.580;2023-11-21T17:07:23;102037.88;;;6.64;100.00